Terminal Aerodrome Forecast
Issued by NWS Twin Cities, MN

Home | Current Version | Previous Version | Graphics & Text | Print | Product List | Glossary On
Versions: 1 2 3 4 5 6 7 8 9 10 11 12 13 14 15 16 17 18 19 20 21 22
800
FTUS43 KMPX 152340
TAFSTC
TAF
KSTC 152340Z 1600/1624 13006KT P6SM SCT100 OVC250
     FM160600 11005KT P6SM OVC100
     FM160900 11007KT P6SM SHRA VCTS OVC040CB
     FM161300 12008KT 4SM SHRA BR OVC008
     FM162100 15007KT 5SM BR OVC012 PROB30 1621/1624 3SM TSRA
      OVC020CB=

USA.gov is the U.S. government's official web portal to all federal, state and local government web resources and services.